Aérodrome :
LOGIN :

S'inscrire | Disclaimer

   EN    FR    IT 

 










Légende :    VFR   VFR Marginal   IFR   IFR Intensif   IFR Très Intensif
Visi : 
Plafond : 
>= 8 km
>= 3000ft
5 à 8 km
1000 à 3000 ft
1500m à 5 km
500 à 1000 ft
800 à 1500m
200 à 500 ft
< 800m
< 200 ft
Symboles :   Orages  Brouillard  Fortes neiges  Fortes précipitations  Vent > 20 kt
SIGMETs :   Divers  Orages  Givrage  Turbulence  Onde Orograph.  Cendres Volcan.






- Altitude de l'aérodrome : 353 ft
- Code IATA : LIN


LIML - Milano Linate

DERNIER METAR :
  • 071450Z 13010KT 080V170 CAVOK 29/16 Q1014 NOSIG

METARs EXPIRÉS :
  • 071420Z 12011KT CAVOK 30/16 Q1014 NOSIG
  • 071350Z 14010KT 100V180 CAVOK 29/16 Q1014 NOSIG
  • 071320Z 16007KT 110V200 9999 FEW035 29/18 Q1015 NOSIG
  • 071250Z 14008KT 090V170 9999 FEW050 28/17 Q1015 NOSIG
  • 071220Z 14007KT 060V200 9999 FEW050 29/17 Q1016 NOSIG

TAF TAF LIML
Valide du 07 à 12h jusqu'au 08 à 12h UTC


071100Z 0712/0812 06008KT 9999 SCT040
TEMPO 0713/0722 4000 TSRA



MET'MAP, la Météo Aéronautique d'un coup d'oeil ! - Copyright ORBIFLY Décembre 2007 - Disclaimer

ORBIFLY MET'MAP TEAM :

Programmation & Développement : Alexandra Zaïnal
Sur une idée originale de : Baudouin d'Aumeries
Soutien technique & logistique : Manuel Goepfert
Assistance : Marc-Olivier Méhu




SOURCES & CREDITS :

   NOAA